createdAt,value
2022-09-30T00:00:26.862Z,7.40
2022-09-30T00:05:28.406Z,7.28
2022-09-30T00:10:29.838Z,6.35
2022-09-30T00:15:31.283Z,6.65
2022-09-30T00:20:34.995Z,6.65
2022-09-30T00:25:36.448Z,6.70
2022-09-30T00:30:37.871Z,5.97
2022-09-30T00:35:39.389Z,4.65
2022-09-30T00:40:40.965Z,5.65
2022-09-30T00:45:56.669Z,5.18
2022-09-30T00:50:58.455Z,4.63
2022-09-30T00:56:17.312Z,4.65
2022-09-30T01:01:19.708Z,4.55
2022-09-30T01:06:23.179Z,4.35
2022-09-30T01:11:24.727Z,4.60
2022-09-30T01:16:53.737Z,4.38
2022-09-30T01:22:05.002Z,4.80
2022-09-30T01:27:21.332Z,4.70
2022-09-30T01:32:41.181Z,4.50
2022-09-30T01:43:29.672Z,4.07
2022-09-30T01:48:58.521Z,4.55
2022-09-30T01:54:20.032Z,4.22
2022-09-30T01:59:40.438Z,4.43
2022-09-30T02:04:47.877Z,4.82
2022-09-30T02:09:57.345Z,4.35
2022-09-30T02:20:16.445Z,4.13
2022-09-30T02:25:25.987Z,4.32
2022-09-30T02:30:28.448Z,4.15
2022-09-30T02:35:35.812Z,4.32
2022-09-30T02:40:43.380Z,4.85
2022-09-30T02:45:59.165Z,4.47
2022-09-30T02:51:11.839Z,4.28
2022-09-30T02:56:23.647Z,3.90
2022-09-30T03:01:25.351Z,3.85
2022-09-30T03:06:27.639Z,4.03
2022-09-30T03:11:30.440Z,4.45
2022-09-30T03:17:14.877Z,4.00
2022-09-30T03:22:27.652Z,3.95
2022-09-30T03:28:12.760Z,3.70
2022-09-30T03:33:30.223Z,3.67
2022-09-30T03:38:40.784Z,3.90
2022-09-30T03:43:51.073Z,4.13
2022-09-30T03:48:59.779Z,3.28
2022-09-30T03:54:01.306Z,3.77
2022-09-30T03:59:03.612Z,3.80
2022-09-30T04:04:05.127Z,3.88
2022-09-30T04:09:06.615Z,3.35
2022-09-30T04:14:08.131Z,4.00
2022-09-30T04:19:09.612Z,3.92
2022-09-30T04:24:11.145Z,3.95
2022-09-30T04:29:12.627Z,4.40
2022-09-30T04:34:14.096Z,3.88
2022-09-30T04:39:15.523Z,4.32
2022-09-30T04:44:16.953Z,3.95
2022-09-30T04:49:18.656Z,3.92
2022-09-30T04:54:20.175Z,4.05
2022-09-30T04:59:21.601Z,4.45
2022-09-30T05:04:23.043Z,4.30
2022-09-30T05:09:24.591Z,4.78
2022-09-30T05:14:26.135Z,4.60
2022-09-30T05:19:28.109Z,4.35
2022-09-30T05:24:30.901Z,4.82
2022-09-30T05:29:32.332Z,4.80
2022-09-30T05:34:33.829Z,4.45
2022-09-30T05:39:36.676Z,4.28
2022-09-30T05:44:38.294Z,4.47
2022-09-30T05:49:41.615Z,5.57
2022-09-30T05:54:43.061Z,5.72
2022-09-30T05:59:44.474Z,4.90
2022-09-30T06:04:46.026Z,5.15
2022-09-30T06:09:47.624Z,5.22
2022-09-30T06:14:49.248Z,6.75
2022-09-30T06:19:50.792Z,5.82
2022-09-30T06:24:55.144Z,5.60
2022-09-30T06:29:57.856Z,5.82
2022-09-30T06:34:59.269Z,4.95
2022-09-30T06:40:00.927Z,5.70
2022-09-30T06:45:02.335Z,7.03
2022-09-30T06:50:04.217Z,5.53
2022-09-30T06:55:05.876Z,8.20
2022-09-30T07:00:07.972Z,6.07
2022-09-30T07:05:10.370Z,6.15
2022-09-30T07:10:11.824Z,5.28
2022-09-30T07:15:13.945Z,5.35
2022-09-30T07:20:15.488Z,6.10
2022-09-30T07:25:17.889Z,5.60
2022-09-30T07:30:26.660Z,5.93
2022-09-30T07:35:28.612Z,6.22
2022-09-30T07:40:31.306Z,5.40
2022-09-30T07:45:32.817Z,6.07
2022-09-30T07:50:34.440Z,6.30
2022-09-30T07:55:35.878Z,6.40
2022-09-30T08:00:42.717Z,6.30
2022-09-30T08:05:48.534Z,6.82
2022-09-30T08:10:49.958Z,8.65
2022-09-30T08:15:51.438Z,9.63
2022-09-30T08:20:52.958Z,9.23
2022-09-30T08:26:11.091Z,9.68
2022-09-30T08:31:12.671Z,10.10
2022-09-30T08:36:23.668Z,10.48
2022-09-30T08:41:30.805Z,10.23
2022-09-30T08:46:47.003Z,8.65
2022-09-30T08:51:50.387Z,9.43
2022-09-30T08:56:52.275Z,9.15
2022-09-30T09:02:02.223Z,8.85
2022-09-30T09:07:22.271Z,9.25
2022-09-30T09:12:45.168Z,9.23
2022-09-30T09:18:18.374Z,9.02
2022-09-30T09:23:14.392Z,8.98
2022-09-30T09:28:27.787Z,9.20
2022-09-30T09:33:32.004Z,8.38
2022-09-30T09:38:59.770Z,8.60
2022-09-30T09:44:06.419Z,9.02
2022-09-30T09:49:13.862Z,9.25
2022-09-30T09:54:21.003Z,8.20
2022-09-30T09:59:22.982Z,8.13
2022-09-30T10:04:30.391Z,8.50
2022-09-30T10:09:34.588Z,8.80
2022-09-30T10:14:47.712Z,8.73
2022-09-30T10:19:55.212Z,8.30
2022-09-30T10:25:29.268Z,7.72
2022-09-30T10:30:48.700Z,7.25
2022-09-30T10:35:55.153Z,5.68
2022-09-30T10:40:56.841Z,5.22
2022-09-30T10:46:24.493Z,5.57
2022-09-30T10:51:29.370Z,4.50
2022-09-30T10:56:39.865Z,4.22
2022-09-30T11:01:52.630Z,4.55
2022-09-30T11:07:04.932Z,4.72
2022-09-30T11:12:33.559Z,3.90
2022-09-30T11:18:12.986Z,3.17
2022-09-30T11:23:32.432Z,3.22
2022-09-30T11:29:16.686Z,3.47
2022-09-30T11:34:26.580Z,3.35
2022-09-30T11:39:35.076Z,3.20
2022-09-30T11:44:41.492Z,2.55
2022-09-30T11:50:07.784Z,2.50
2022-09-30T11:55:29.863Z,2.92
2022-09-30T12:00:36.500Z,2.75
2022-09-30T12:05:45.892Z,3.10
2022-09-30T12:10:54.922Z,3.05
2022-09-30T12:15:58.441Z,3.17
2022-09-30T12:21:04.074Z,3.13
2022-09-30T12:26:06.295Z,3.40
2022-09-30T12:31:45.105Z,4.05
2022-09-30T12:37:05.790Z,3.42
2022-09-30T12:42:28.333Z,3.33
2022-09-30T12:47:45.822Z,2.90
2022-09-30T12:52:48.679Z,2.97
2022-09-30T12:57:52.230Z,2.67
2022-09-30T13:03:17.941Z,2.88
2022-09-30T13:08:24.215Z,3.10
2022-09-30T13:13:33.979Z,2.65
2022-09-30T13:18:35.980Z,2.72
2022-09-30T13:23:46.403Z,2.95
2022-09-30T13:28:48.588Z,3.10
2022-09-30T13:34:01.940Z,3.13
2022-09-30T13:39:45.689Z,4.32
2022-09-30T13:45:06.404Z,2.83
2022-09-30T13:50:18.707Z,2.97
2022-09-30T13:55:26.001Z,3.00
2022-09-30T14:00:56.730Z,2.75
2022-09-30T14:06:22.991Z,2.80
2022-09-30T14:11:36.004Z,1.92
2022-09-30T14:17:00.731Z,2.13
2022-09-30T14:22:08.679Z,1.20
2022-09-30T14:27:16.843Z,1.45
2022-09-30T14:32:29.100Z,1.27
2022-09-30T14:37:35.571Z,1.08
2022-09-30T14:42:41.048Z,1.15
2022-09-30T14:47:49.200Z,1.30
2022-09-30T14:52:55.758Z,1.42
2022-09-30T14:58:28.283Z,1.67
2022-09-30T15:03:32.617Z,1.40
2022-09-30T15:08:34.162Z,1.30
2022-09-30T15:13:37.565Z,1.23
2022-09-30T15:18:46.462Z,1.08
2022-09-30T15:23:52.159Z,1.40
2022-09-30T15:28:54.634Z,1.20
2022-09-30T15:34:05.327Z,1.23
2022-09-30T15:39:20.365Z,0.90
2022-09-30T15:44:39.340Z,1.13
2022-09-30T15:49:41.803Z,1.27
2022-09-30T15:54:43.352Z,1.38
2022-09-30T16:00:00.401Z,1.00
2022-09-30T16:05:02.811Z,0.90
2022-09-30T16:10:06.900Z,0.80
2022-09-30T16:15:15.434Z,0.70
2022-09-30T16:20:19.483Z,0.93
2022-09-30T16:25:33.434Z,0.73
2022-09-30T16:30:34.903Z,1.05
2022-09-30T16:35:36.300Z,0.77
2022-09-30T16:40:38.000Z,0.90
2022-09-30T16:45:40.940Z,1.27
2022-09-30T16:50:53.096Z,0.70
2022-09-30T16:55:54.584Z,2.30
2022-09-30T17:00:57.657Z,2.10
2022-09-30T17:05:59.917Z,0.98
2022-09-30T17:11:01.592Z,0.80
2022-09-30T17:16:03.129Z,1.02
2022-09-30T17:21:04.839Z,0.95
2022-09-30T17:26:06.753Z,1.50
2022-09-30T17:31:09.632Z,1.25
2022-09-30T17:36:14.013Z,1.25
2022-09-30T17:41:34.515Z,1.30
2022-09-30T17:46:45.865Z,1.27
2022-09-30T17:51:47.271Z,1.23
2022-09-30T17:56:48.682Z,1.38
2022-09-30T18:01:50.809Z,1.10
2022-09-30T18:06:56.100Z,1.30
2022-09-30T18:12:00.331Z,0.80
2022-09-30T18:17:03.606Z,0.93
2022-09-30T18:22:05.015Z,1.40
2022-09-30T18:27:06.490Z,1.20
2022-09-30T18:32:08.810Z,1.05
2022-09-30T18:37:10.253Z,1.00
2022-09-30T18:42:11.970Z,0.90
2022-09-30T18:47:17.325Z,1.48
2022-09-30T18:52:18.736Z,1.20
2022-09-30T18:57:20.171Z,1.20
2022-09-30T19:02:21.613Z,1.17
2022-09-30T19:07:24.513Z,1.10
2022-09-30T19:12:27.720Z,1.30
2022-09-30T19:17:31.726Z,1.17
2022-09-30T19:22:37.156Z,1.42
2022-09-30T19:27:40.766Z,1.27
2022-09-30T19:32:42.256Z,1.00
2022-09-30T19:37:57.291Z,1.23
2022-09-30T19:43:01.988Z,0.95
2022-09-30T19:48:03.455Z,1.20
2022-09-30T19:53:04.873Z,1.40
2022-09-30T19:58:06.999Z,1.60
2022-09-30T20:03:08.450Z,1.70
2022-09-30T20:08:09.884Z,2.25
2022-09-30T20:13:11.733Z,1.50
2022-09-30T20:18:13.130Z,1.23
2022-09-30T20:23:14.916Z,1.75
2022-09-30T20:28:16.450Z,1.45
2022-09-30T20:33:21.088Z,1.58
2022-09-30T20:38:24.744Z,1.40
2022-09-30T20:43:27.829Z,1.42
2022-09-30T20:48:36.776Z,1.58
2022-09-30T20:53:39.591Z,1.45
2022-09-30T20:58:42.042Z,1.70
2022-09-30T21:03:50.068Z,1.48
2022-09-30T21:08:52.524Z,1.98
2022-09-30T21:13:54.008Z,2.33
2022-09-30T21:18:55.608Z,2.00
2022-09-30T21:23:58.558Z,2.17
2022-09-30T21:29:00.021Z,2.30
2022-09-30T21:34:01.498Z,2.28
2022-09-30T21:39:03.304Z,2.03
2022-09-30T21:44:04.740Z,2.35
2022-09-30T21:49:14.268Z,2.67
2022-09-30T21:59:17.168Z,2.50
2022-09-30T22:04:19.534Z,2.92
2022-09-30T22:09:20.955Z,2.78
2022-09-30T22:14:22.364Z,2.40
2022-09-30T22:19:23.766Z,2.30
2022-09-30T22:24:25.156Z,2.38
2022-09-30T22:29:26.718Z,2.45
2022-09-30T22:34:47.053Z,2.30
2022-09-30T22:39:48.493Z,2.25
2022-09-30T22:44:50.468Z,2.20
2022-09-30T22:49:51.929Z,2.20
2022-09-30T22:54:53.802Z,2.70
2022-09-30T22:59:59.697Z,2.17
2022-09-30T23:05:02.081Z,2.20
2022-09-30T23:10:04.036Z,2.40
2022-09-30T23:15:07.289Z,2.20
2022-09-30T23:20:08.871Z,2.60
2022-09-30T23:25:10.373Z,2.00
2022-09-30T23:30:11.789Z,1.92
2022-09-30T23:35:13.981Z,2.20
2022-09-30T23:40:15.766Z,1.75
2022-09-30T23:45:17.194Z,1.92
2022-09-30T23:50:18.587Z,1.98
2022-09-30T23:55:19.989Z,2.38
